sensor_id;sensor_type;location;lat;lon;timestamp;P1;durP1;ratioP1;P2;durP2;ratioP2
15938;SDS011;8068;51.322;9.450;2023-11-19T00:00:08;2.77;;;2.67;;
15938;SDS011;8068;51.322;9.450;2023-11-19T00:02:40;3.10;;;2.90;;
15938;SDS011;8068;51.322;9.450;2023-11-19T00:05:09;2.50;;;2.40;;
15938;SDS011;8068;51.322;9.450;2023-11-19T00:07:38;2.70;;;2.60;;
15938;SDS011;8068;51.322;9.450;2023-11-19T00:10:09;2.87;;;2.77;;
15938;SDS011;8068;51.322;9.450;2023-11-19T00:12:37;2.70;;;2.60;;
15938;SDS011;8068;51.322;9.450;2023-11-19T00:15:08;2.40;;;2.30;;
15938;SDS011;8068;51.322;9.450;2023-11-19T00:17:38;2.90;;;2.80;;
15938;SDS011;8068;51.322;9.450;2023-11-19T00:20:12;2.80;;;2.70;;
15938;SDS011;8068;51.322;9.450;2023-11-19T00:22:40;3.20;;;3.10;;
15938;SDS011;8068;51.322;9.450;2023-11-19T00:25:11;3.30;;;3.20;;
15938;SDS011;8068;51.322;9.450;2023-11-19T00:27:38;3.00;;;2.90;;
15938;SDS011;8068;51.322;9.450;2023-11-19T00:30:06;3.87;;;3.60;;
15938;SDS011;8068;51.322;9.450;2023-11-19T00:32:33;3.73;;;3.63;;
15938;SDS011;8068;51.322;9.450;2023-11-19T00:35:00;3.70;;;3.50;;
15938;SDS011;8068;51.322;9.450;2023-11-19T00:37:27;4.20;;;4.00;;
15938;SDS011;8068;51.322;9.450;2023-11-19T00:39:54;4.10;;;4.00;;
15938;SDS011;8068;51.322;9.450;2023-11-19T00:42:22;3.77;;;3.57;;
15938;SDS011;8068;51.322;9.450;2023-11-19T00:44:51;3.20;;;3.10;;
15938;SDS011;8068;51.322;9.450;2023-11-19T00:47:18;6.40;;;4.07;;
15938;SDS011;8068;51.322;9.450;2023-11-19T00:49:48;4.07;;;3.87;;
15938;SDS011;8068;51.322;9.450;2023-11-19T00:52:15;3.27;;;3.17;;
15938;SDS011;8068;51.322;9.450;2023-11-19T00:54:43;3.53;;;3.43;;
15938;SDS011;8068;51.322;9.450;2023-11-19T00:57:10;3.73;;;3.20;;
15938;SDS011;8068;51.322;9.450;2023-11-19T00:59:37;3.77;;;3.67;;
15938;SDS011;8068;51.322;9.450;2023-11-19T01:02:04;3.67;;;3.57;;
15938;SDS011;8068;51.322;9.450;2023-11-19T01:04:33;3.80;;;3.60;;
15938;SDS011;8068;51.322;9.450;2023-11-19T01:07:04;4.00;;;3.90;;
15938;SDS011;8068;51.322;9.450;2023-11-19T01:09:32;3.37;;;3.27;;
15938;SDS011;8068;51.322;9.450;2023-11-19T01:12:02;3.60;;;3.50;;
15938;SDS011;8068;51.322;9.450;2023-11-19T01:14:29;3.00;;;2.90;;
15938;SDS011;8068;51.322;9.450;2023-11-19T01:16:56;3.77;;;3.67;;
15938;SDS011;8068;51.322;9.450;2023-11-19T01:19:24;3.70;;;3.60;;
15938;SDS011;8068;51.322;9.450;2023-11-19T01:21:51;3.00;;;2.90;;
15938;SDS011;8068;51.322;9.450;2023-11-19T01:24:19;2.83;;;2.73;;
15938;SDS011;8068;51.322;9.450;2023-11-19T01:26:46;3.27;;;3.17;;
15938;SDS011;8068;51.322;9.450;2023-11-19T01:29:14;2.83;;;2.33;;
15938;SDS011;8068;51.322;9.450;2023-11-19T01:31:45;3.10;;;3.00;;
15938;SDS011;8068;51.322;9.450;2023-11-19T01:34:15;3.60;;;3.50;;
15938;SDS011;8068;51.322;9.450;2023-11-19T01:36:42;3.40;;;3.30;;
15938;SDS011;8068;51.322;9.450;2023-11-19T01:39:09;3.20;;;3.10;;
15938;SDS011;8068;51.322;9.450;2023-11-19T01:41:36;3.73;;;3.63;;
15938;SDS011;8068;51.322;9.450;2023-11-19T01:44:03;4.37;;;4.03;;
15938;SDS011;8068;51.322;9.450;2023-11-19T01:46:30;4.17;;;3.97;;
15938;SDS011;8068;51.322;9.450;2023-11-19T01:49:00;3.80;;;3.70;;
15938;SDS011;8068;51.322;9.450;2023-11-19T01:51:27;3.80;;;3.70;;
15938;SDS011;8068;51.322;9.450;2023-11-19T01:53:54;3.33;;;3.23;;
15938;SDS011;8068;51.322;9.450;2023-11-19T01:56:23;4.07;;;3.97;;
15938;SDS011;8068;51.322;9.450;2023-11-19T01:58:51;4.30;;;4.13;;
15938;SDS011;8068;51.322;9.450;2023-11-19T02:01:20;4.50;;;4.40;;
15938;SDS011;8068;51.322;9.450;2023-11-19T02:03:47;4.67;;;4.47;;
15938;SDS011;8068;51.322;9.450;2023-11-19T02:06:15;4.50;;;4.40;;
15938;SDS011;8068;51.322;9.450;2023-11-19T02:08:42;4.73;;;4.53;;
15938;SDS011;8068;51.322;9.450;2023-11-19T02:11:10;4.90;;;4.70;;
15938;SDS011;8068;51.322;9.450;2023-11-19T02:13:38;4.90;;;4.80;;
15938;SDS011;8068;51.322;9.450;2023-11-19T02:16:05;4.93;;;4.73;;
15938;SDS011;8068;51.322;9.450;2023-11-19T02:18:33;5.07;;;4.90;;
15938;SDS011;8068;51.322;9.450;2023-11-19T02:21:00;4.40;;;4.20;;
15938;SDS011;8068;51.322;9.450;2023-11-19T02:23:27;5.37;;;5.17;;
15938;SDS011;8068;51.322;9.450;2023-11-19T02:28:37;5.13;;;4.93;;
15938;SDS011;8068;51.322;9.450;2023-11-19T02:31:04;4.60;;;4.50;;
15938;SDS011;8068;51.322;9.450;2023-11-19T02:33:31;5.80;;;5.50;;
15938;SDS011;8068;51.322;9.450;2023-11-19T02:35:58;6.30;;;6.00;;
15938;SDS011;8068;51.322;9.450;2023-11-19T02:38:25;4.83;;;4.63;;
15938;SDS011;8068;51.322;9.450;2023-11-19T02:40:52;5.37;;;5.17;;
15938;SDS011;8068;51.322;9.450;2023-11-19T02:43:20;5.43;;;5.23;;
15938;SDS011;8068;51.322;9.450;2023-11-19T02:45:47;5.60;;;5.40;;
15938;SDS011;8068;51.322;9.450;2023-11-19T02:48:13;5.60;;;5.40;;
15938;SDS011;8068;51.322;9.450;2023-11-19T02:50:42;5.37;;;5.17;;
15938;SDS011;8068;51.322;9.450;2023-11-19T02:53:09;7.17;;;6.70;;
15938;SDS011;8068;51.322;9.450;2023-11-19T02:55:36;6.60;;;6.30;;
15938;SDS011;8068;51.322;9.450;2023-11-19T02:58:06;6.90;;;6.60;;
15938;SDS011;8068;51.322;9.450;2023-11-19T03:00:39;6.70;;;6.40;;
15938;SDS011;8068;51.322;9.450;2023-11-19T03:03:14;6.80;;;6.50;;
15938;SDS011;8068;51.322;9.450;2023-11-19T03:05:49;6.60;;;6.30;;
15938;SDS011;8068;51.322;9.450;2023-11-19T03:08:16;6.43;;;6.10;;
15938;SDS011;8068;51.322;9.450;2023-11-19T03:10:46;7.70;;;7.20;;
15938;SDS011;8068;51.322;9.450;2023-11-19T03:13:13;7.27;;;6.87;;
15938;SDS011;8068;51.322;9.450;2023-11-19T03:15:41;6.80;;;6.50;;
15938;SDS011;8068;51.322;9.450;2023-11-19T03:18:08;6.53;;;6.27;;
15938;SDS011;8068;51.322;9.450;2023-11-19T03:20:35;6.60;;;6.20;;
15938;SDS011;8068;51.322;9.450;2023-11-19T03:23:02;6.70;;;6.23;;
15938;SDS011;8068;51.322;9.450;2023-11-19T03:25:29;6.17;;;5.77;;
15938;SDS011;8068;51.322;9.450;2023-11-19T03:28:03;6.20;;;5.93;;
15938;SDS011;8068;51.322;9.450;2023-11-19T03:30:30;5.70;;;5.40;;
15938;SDS011;8068;51.322;9.450;2023-11-19T03:33:01;5.80;;;5.60;;
15938;SDS011;8068;51.322;9.450;2023-11-19T03:35:29;5.80;;;5.60;;
15938;SDS011;8068;51.322;9.450;2023-11-19T03:37:57;5.70;;;5.50;;
15938;SDS011;8068;51.322;9.450;2023-11-19T03:40:23;6.20;;;6.00;;
15938;SDS011;8068;51.322;9.450;2023-11-19T03:42:52;5.40;;;5.20;;
15938;SDS011;8068;51.322;9.450;2023-11-19T03:45:18;6.10;;;5.80;;
15938;SDS011;8068;51.322;9.450;2023-11-19T03:47:45;6.67;;;6.17;;
15938;SDS011;8068;51.322;9.450;2023-11-19T03:50:12;4.83;;;4.67;;
15938;SDS011;8068;51.322;9.450;2023-11-19T03:52:42;4.40;;;4.30;;
15938;SDS011;8068;51.322;9.450;2023-11-19T03:55:10;4.47;;;4.37;;
15938;SDS011;8068;51.322;9.450;2023-11-19T03:57:39;4.50;;;4.30;;
15938;SDS011;8068;51.322;9.450;2023-11-19T04:00:06;3.60;;;3.50;;
15938;SDS011;8068;51.322;9.450;2023-11-19T04:02:37;4.03;;;3.93;;
15938;SDS011;8068;51.322;9.450;2023-11-19T04:05:04;4.30;;;4.10;;
15938;SDS011;8068;51.322;9.450;2023-11-19T04:07:32;4.30;;;4.10;;
15938;SDS011;8068;51.322;9.450;2023-11-19T04:09:59;4.73;;;4.53;;
15938;SDS011;8068;51.322;9.450;2023-11-19T04:12:26;5.23;;;5.03;;
15938;SDS011;8068;51.322;9.450;2023-11-19T04:14:53;5.73;;;5.53;;
15938;SDS011;8068;51.322;9.450;2023-11-19T04:17:23;5.07;;;4.97;;
15938;SDS011;8068;51.322;9.450;2023-11-19T04:19:50;6.10;;;5.90;;
15938;SDS011;8068;51.322;9.450;2023-11-19T04:22:17;5.03;;;4.83;;
15938;SDS011;8068;51.322;9.450;2023-11-19T04:24:44;6.43;;;6.13;;
15938;SDS011;8068;51.322;9.450;2023-11-19T04:27:12;6.47;;;6.27;;
15938;SDS011;8068;51.322;9.450;2023-11-19T04:29:40;6.23;;;6.03;;
15938;SDS011;8068;51.322;9.450;2023-11-19T04:32:07;7.40;;;6.80;;
15938;SDS011;8068;51.322;9.450;2023-11-19T04:34:34;6.93;;;6.47;;
15938;SDS011;8068;51.322;9.450;2023-11-19T04:37:01;6.23;;;6.00;;
15938;SDS011;8068;51.322;9.450;2023-11-19T04:39:39;6.73;;;6.40;;
15938;SDS011;8068;51.322;9.450;2023-11-19T04:42:06;5.03;;;4.83;;
15938;SDS011;8068;51.322;9.450;2023-11-19T04:44:33;4.90;;;4.70;;
15938;SDS011;8068;51.322;9.450;2023-11-19T04:47:00;14.13;;;5.73;;
15938;SDS011;8068;51.322;9.450;2023-11-19T04:49:27;5.30;;;5.10;;
15938;SDS011;8068;51.322;9.450;2023-11-19T04:51:54;5.60;;;5.07;;
15938;SDS011;8068;51.322;9.450;2023-11-19T04:54:21;6.20;;;5.90;;
15938;SDS011;8068;51.322;9.450;2023-11-19T04:56:48;5.73;;;5.53;;
15938;SDS011;8068;51.322;9.450;2023-11-19T04:59:15;5.50;;;5.30;;
15938;SDS011;8068;51.322;9.450;2023-11-19T05:01:46;5.30;;;5.10;;
15938;SDS011;8068;51.322;9.450;2023-11-19T05:04:14;5.53;;;5.20;;
15938;SDS011;8068;51.322;9.450;2023-11-19T05:06:41;5.47;;;5.27;;
15938;SDS011;8068;51.322;9.450;2023-11-19T05:09:08;5.73;;;5.53;;
15938;SDS011;8068;51.322;9.450;2023-11-19T05:11:35;4.90;;;4.70;;
15938;SDS011;8068;51.322;9.450;2023-11-19T05:14:16;4.80;;;4.70;;
15938;SDS011;8068;51.322;9.450;2023-11-19T05:16:45;5.30;;;5.10;;
15938;SDS011;8068;51.322;9.450;2023-11-19T05:19:12;5.17;;;4.97;;
15938;SDS011;8068;51.322;9.450;2023-11-19T05:21:41;5.43;;;5.13;;
15938;SDS011;8068;51.322;9.450;2023-11-19T05:24:09;5.27;;;5.07;;
15938;SDS011;8068;51.322;9.450;2023-11-19T05:26:36;5.10;;;4.90;;
15938;SDS011;8068;51.322;9.450;2023-11-19T05:29:03;5.30;;;5.10;;
15938;SDS011;8068;51.322;9.450;2023-11-19T05:31:31;5.70;;;5.50;;
15938;SDS011;8068;51.322;9.450;2023-11-19T05:34:02;6.40;;;6.10;;
15938;SDS011;8068;51.322;9.450;2023-11-19T05:36:29;6.50;;;6.20;;
15938;SDS011;8068;51.322;9.450;2023-11-19T05:38:56;6.63;;;6.40;;
15938;SDS011;8068;51.322;9.450;2023-11-19T05:41:23;6.70;;;6.43;;
15938;SDS011;8068;51.322;9.450;2023-11-19T05:43:50;6.33;;;5.90;;
15938;SDS011;8068;51.322;9.450;2023-11-19T05:46:18;5.53;;;5.33;;
15938;SDS011;8068;51.322;9.450;2023-11-19T05:48:47;6.30;;;6.00;;
15938;SDS011;8068;51.322;9.450;2023-11-19T05:51:14;6.63;;;6.33;;
15938;SDS011;8068;51.322;9.450;2023-11-19T05:53:42;6.20;;;6.00;;
15938;SDS011;8068;51.322;9.450;2023-11-19T05:56:09;6.00;;;5.80;;
15938;SDS011;8068;51.322;9.450;2023-11-19T05:58:36;6.17;;;5.90;;
15938;SDS011;8068;51.322;9.450;2023-11-19T06:01:04;5.70;;;5.50;;
15938;SDS011;8068;51.322;9.450;2023-11-19T06:03:34;5.60;;;5.40;;
15938;SDS011;8068;51.322;9.450;2023-11-19T06:06:01;5.90;;;5.60;;
15938;SDS011;8068;51.322;9.450;2023-11-19T06:08:28;5.23;;;5.03;;
15938;SDS011;8068;51.322;9.450;2023-11-19T06:10:56;6.60;;;6.00;;
15938;SDS011;8068;51.322;9.450;2023-11-19T06:13:24;6.60;;;6.00;;
15938;SDS011;8068;51.322;9.450;2023-11-19T06:15:55;5.60;;;5.40;;
15938;SDS011;8068;51.322;9.450;2023-11-19T06:18:21;5.90;;;5.60;;
15938;SDS011;8068;51.322;9.450;2023-11-19T06:20:50;5.53;;;5.07;;
15938;SDS011;8068;51.322;9.450;2023-11-19T06:23:17;5.47;;;5.17;;
15938;SDS011;8068;51.322;9.450;2023-11-19T06:25:43;5.60;;;5.07;;
15938;SDS011;8068;51.322;9.450;2023-11-19T06:28:10;5.23;;;4.93;;
15938;SDS011;8068;51.322;9.450;2023-11-19T06:30:37;5.20;;;4.90;;
15938;SDS011;8068;51.322;9.450;2023-11-19T06:33:05;5.80;;;5.40;;
15938;SDS011;8068;51.322;9.450;2023-11-19T06:35:32;5.10;;;4.70;;
15938;SDS011;8068;51.322;9.450;2023-11-19T06:38:03;4.63;;;4.43;;
15938;SDS011;8068;51.322;9.450;2023-11-19T06:40:33;4.23;;;4.00;;
15938;SDS011;8068;51.322;9.450;2023-11-19T06:43:02;4.40;;;4.10;;
15938;SDS011;8068;51.322;9.450;2023-11-19T06:45:30;4.90;;;4.80;;
15938;SDS011;8068;51.322;9.450;2023-11-19T06:47:57;5.83;;;4.83;;
15938;SDS011;8068;51.322;9.450;2023-11-19T06:50:25;5.07;;;4.87;;
15938;SDS011;8068;51.322;9.450;2023-11-19T06:52:52;5.00;;;4.60;;
15938;SDS011;8068;51.322;9.450;2023-11-19T06:55:19;4.70;;;4.50;;
15938;SDS011;8068;51.322;9.450;2023-11-19T06:57:46;4.90;;;4.63;;
15938;SDS011;8068;51.322;9.450;2023-11-19T07:00:13;4.10;;;3.90;;
15938;SDS011;8068;51.322;9.450;2023-11-19T07:02:40;4.93;;;4.77;;
15938;SDS011;8068;51.322;9.450;2023-11-19T07:05:07;8.50;;;4.37;;
15938;SDS011;8068;51.322;9.450;2023-11-19T07:07:35;4.40;;;4.20;;
15938;SDS011;8068;51.322;9.450;2023-11-19T07:10:02;5.10;;;4.70;;
15938;SDS011;8068;51.322;9.450;2023-11-19T07:12:31;3.87;;;3.67;;
15938;SDS011;8068;51.322;9.450;2023-11-19T07:14:58;4.37;;;4.07;;
15938;SDS011;8068;51.322;9.450;2023-11-19T07:17:25;4.13;;;3.93;;
15938;SDS011;8068;51.322;9.450;2023-11-19T07:19:52;5.87;;;4.37;;
15938;SDS011;8068;51.322;9.450;2023-11-19T07:22:19;3.50;;;3.40;;
15938;SDS011;8068;51.322;9.450;2023-11-19T07:24:46;11.47;;;8.13;;
15938;SDS011;8068;51.322;9.450;2023-11-19T07:27:13;4.90;;;4.57;;
15938;SDS011;8068;51.322;9.450;2023-11-19T07:29:42;3.77;;;3.53;;
15938;SDS011;8068;51.322;9.450;2023-11-19T07:32:10;4.23;;;3.93;;
15938;SDS011;8068;51.322;9.450;2023-11-19T07:34:37;5.43;;;4.00;;
15938;SDS011;8068;51.322;9.450;2023-11-19T07:37:05;3.73;;;3.43;;
15938;SDS011;8068;51.322;9.450;2023-11-19T07:39:32;4.37;;;4.07;;
15938;SDS011;8068;51.322;9.450;2023-11-19T07:41:59;4.00;;;3.70;;
15938;SDS011;8068;51.322;9.450;2023-11-19T07:44:26;4.00;;;3.70;;
15938;SDS011;8068;51.322;9.450;2023-11-19T07:46:53;3.87;;;3.60;;
15938;SDS011;8068;51.322;9.450;2023-11-19T07:49:20;3.90;;;3.13;;
15938;SDS011;8068;51.322;9.450;2023-11-19T07:51:47;3.60;;;3.40;;
15938;SDS011;8068;51.322;9.450;2023-11-19T07:54:14;2.93;;;2.50;;
15938;SDS011;8068;51.322;9.450;2023-11-19T07:56:41;2.70;;;2.50;;
15938;SDS011;8068;51.322;9.450;2023-11-19T07:59:08;3.10;;;2.17;;
15938;SDS011;8068;51.322;9.450;2023-11-19T08:01:35;2.03;;;1.60;;
15938;SDS011;8068;51.322;9.450;2023-11-19T08:04:02;15.70;;;10.00;;
15938;SDS011;8068;51.322;9.450;2023-11-19T08:06:29;2.57;;;2.00;;
15938;SDS011;8068;51.322;9.450;2023-11-19T08:08:56;3.20;;;1.93;;
15938;SDS011;8068;51.322;9.450;2023-11-19T08:11:23;3.20;;;2.07;;
15938;SDS011;8068;51.322;9.450;2023-11-19T08:13:51;2.57;;;2.20;;
15938;SDS011;8068;51.322;9.450;2023-11-19T08:16:17;8.73;;;2.20;;
15938;SDS011;8068;51.322;9.450;2023-11-19T08:18:45;4.67;;;2.20;;
15938;SDS011;8068;51.322;9.450;2023-11-19T08:21:12;3.63;;;2.00;;
15938;SDS011;8068;51.322;9.450;2023-11-19T08:23:39;6.60;;;2.33;;
15938;SDS011;8068;51.322;9.450;2023-11-19T08:26:06;3.10;;;2.80;;
15938;SDS011;8068;51.322;9.450;2023-11-19T08:28:33;7.83;;;3.57;;
15938;SDS011;8068;51.322;9.450;2023-11-19T08:31:02;6.70;;;3.17;;
15938;SDS011;8068;51.322;9.450;2023-11-19T08:33:31;11.03;;;3.07;;
15938;SDS011;8068;51.322;9.450;2023-11-19T08:35:59;6.50;;;2.73;;
15938;SDS011;8068;51.322;9.450;2023-11-19T08:38:25;2.60;;;2.17;;
15938;SDS011;8068;51.322;9.450;2023-11-19T08:40:55;6.17;;;2.60;;
15938;SDS011;8068;51.322;9.450;2023-11-19T08:43:27;3.53;;;2.60;;
15938;SDS011;8068;51.322;9.450;2023-11-19T08:45:54;5.40;;;3.23;;
15938;SDS011;8068;51.322;9.450;2023-11-19T08:48:21;13.93;;;2.80;;
15938;SDS011;8068;51.322;9.450;2023-11-19T08:50:48;10.70;;;2.80;;
15938;SDS011;8068;51.322;9.450;2023-11-19T08:53:15;9.90;;;1.70;;
15938;SDS011;8068;51.322;9.450;2023-11-19T08:55:42;13.27;;;2.70;;
15938;SDS011;8068;51.322;9.450;2023-11-19T08:58:09;11.67;;;3.03;;
15938;SDS011;8068;51.322;9.450;2023-11-19T09:00:36;11.50;;;2.60;;
15938;SDS011;8068;51.322;9.450;2023-11-19T09:03:03;8.83;;;2.10;;
15938;SDS011;8068;51.322;9.450;2023-11-19T09:05:30;7.47;;;2.33;;
15938;SDS011;8068;51.322;9.450;2023-11-19T09:07:58;14.20;;;3.33;;
15938;SDS011;8068;51.322;9.450;2023-11-19T09:10:25;11.33;;;2.27;;
15938;SDS011;8068;51.322;9.450;2023-11-19T09:12:53;16.07;;;2.37;;
15938;SDS011;8068;51.322;9.450;2023-11-19T09:15:23;13.03;;;2.40;;
15938;SDS011;8068;51.322;9.450;2023-11-19T09:17:50;19.23;;;3.40;;
15938;SDS011;8068;51.322;9.450;2023-11-19T09:20:18;10.00;;;2.53;;
15938;SDS011;8068;51.322;9.450;2023-11-19T09:22:45;14.37;;;3.27;;
15938;SDS011;8068;51.322;9.450;2023-11-19T09:25:12;13.47;;;2.80;;
15938;SDS011;8068;51.322;9.450;2023-11-19T09:27:43;7.53;;;2.77;;
15938;SDS011;8068;51.322;9.450;2023-11-19T09:30:11;14.83;;;3.27;;
15938;SDS011;8068;51.322;9.450;2023-11-19T09:32:39;10.60;;;3.53;;
15938;SDS011;8068;51.322;9.450;2023-11-19T09:35:07;15.13;;;4.17;;
15938;SDS011;8068;51.322;9.450;2023-11-19T09:37:35;15.77;;;3.87;;
15938;SDS011;8068;51.322;9.450;2023-11-19T09:40:02;12.63;;;3.83;;
15938;SDS011;8068;51.322;9.450;2023-11-19T09:42:30;12.47;;;3.30;;
15938;SDS011;8068;51.322;9.450;2023-11-19T09:44:59;16.30;;;3.70;;
15938;SDS011;8068;51.322;9.450;2023-11-19T09:47:26;15.00;;;4.07;;
15938;SDS011;8068;51.322;9.450;2023-11-19T09:49:54;7.57;;;2.43;;
15938;SDS011;8068;51.322;9.450;2023-11-19T09:52:24;14.70;;;3.10;;
15938;SDS011;8068;51.322;9.450;2023-11-19T09:54:51;9.40;;;2.50;;
15938;SDS011;8068;51.322;9.450;2023-11-19T09:57:18;13.10;;;2.73;;
15938;SDS011;8068;51.322;9.450;2023-11-19T09:59:45;14.90;;;5.03;;
15938;SDS011;8068;51.322;9.450;2023-11-19T10:02:13;19.00;;;4.90;;
15938;SDS011;8068;51.322;9.450;2023-11-19T10:04:41;15.00;;;2.90;;
15938;SDS011;8068;51.322;9.450;2023-11-19T10:07:10;11.37;;;2.90;;
15938;SDS011;8068;51.322;9.450;2023-11-19T10:09:37;10.63;;;2.40;;
15938;SDS011;8068;51.322;9.450;2023-11-19T10:12:04;6.70;;;1.80;;
15938;SDS011;8068;51.322;9.450;2023-11-19T10:14:31;10.67;;;2.40;;
15938;SDS011;8068;51.322;9.450;2023-11-19T10:17:01;15.53;;;2.40;;
15938;SDS011;8068;51.322;9.450;2023-11-19T10:19:31;14.50;;;2.40;;
15938;SDS011;8068;51.322;9.450;2023-11-19T10:22:02;10.13;;;2.40;;
15938;SDS011;8068;51.322;9.450;2023-11-19T10:24:33;14.10;;;2.90;;
15938;SDS011;8068;51.322;9.450;2023-11-19T10:27:08;15.43;;;3.27;;
15938;SDS011;8068;51.322;9.450;2023-11-19T10:29:38;12.17;;;2.47;;
15938;SDS011;8068;51.322;9.450;2023-11-19T10:32:06;16.00;;;3.17;;
15938;SDS011;8068;51.322;9.450;2023-11-19T10:34:56;12.53;;;2.37;;
15938;SDS011;8068;51.322;9.450;2023-11-19T10:37:31;13.27;;;2.73;;
15938;SDS011;8068;51.322;9.450;2023-11-19T10:39:59;11.33;;;2.00;;
15938;SDS011;8068;51.322;9.450;2023-11-19T10:42:27;14.53;;;2.50;;
15938;SDS011;8068;51.322;9.450;2023-11-19T10:44:54;18.70;;;3.20;;
15938;SDS011;8068;51.322;9.450;2023-11-19T10:47:21;9.20;;;2.97;;
15938;SDS011;8068;51.322;9.450;2023-11-19T10:49:52;12.83;;;3.30;;
15938;SDS011;8068;51.322;9.450;2023-11-19T10:52:19;13.93;;;2.50;;
15938;SDS011;8068;51.322;9.450;2023-11-19T10:54:50;16.90;;;2.47;;
15938;SDS011;8068;51.322;9.450;2023-11-19T10:57:20;13.00;;;2.57;;
15938;SDS011;8068;51.322;9.450;2023-11-19T10:59:55;9.30;;;2.60;;
15938;SDS011;8068;51.322;9.450;2023-11-19T11:02:28;15.60;;;2.90;;
15938;SDS011;8068;51.322;9.450;2023-11-19T11:04:57;13.73;;;2.33;;
15938;SDS011;8068;51.322;9.450;2023-11-19T11:07:24;11.90;;;2.80;;
15938;SDS011;8068;51.322;9.450;2023-11-19T11:10:05;7.13;;;2.40;;
15938;SDS011;8068;51.322;9.450;2023-11-19T11:12:35;9.13;;;2.60;;
15938;SDS011;8068;51.322;9.450;2023-11-19T11:15:03;18.17;;;2.80;;
15938;SDS011;8068;51.322;9.450;2023-11-19T11:17:33;16.17;;;3.40;;
15938;SDS011;8068;51.322;9.450;2023-11-19T11:20:00;11.57;;;2.63;;
15938;SDS011;8068;51.322;9.450;2023-11-19T11:22:29;12.80;;;2.60;;
15938;SDS011;8068;51.322;9.450;2023-11-19T11:28:13;15.90;;;3.00;;
15938;SDS011;8068;51.322;9.450;2023-11-19T11:31:02;13.50;;;2.70;;
15938;SDS011;8068;51.322;9.450;2023-11-19T11:36:42;8.10;;;2.43;;
15938;SDS011;8068;51.322;9.450;2023-11-19T11:39:20;13.87;;;3.40;;
15938;SDS011;8068;51.322;9.450;2023-11-19T11:42:14;8.97;;;2.90;;
15938;SDS011;8068;51.322;9.450;2023-11-19T11:50:13;10.97;;;2.47;;
15938;SDS011;8068;51.322;9.450;2023-11-19T11:53:13;14.17;;;3.40;;
15938;SDS011;8068;51.322;9.450;2023-11-19T11:58:17;9.93;;;2.83;;
15938;SDS011;8068;51.322;9.450;2023-11-19T12:00:45;12.93;;;2.77;;
15938;SDS011;8068;51.322;9.450;2023-11-19T12:03:14;18.10;;;3.60;;
15938;SDS011;8068;51.322;9.450;2023-11-19T12:05:44;16.90;;;3.00;;
15938;SDS011;8068;51.322;9.450;2023-11-19T12:08:14;14.27;;;2.50;;
15938;SDS011;8068;51.322;9.450;2023-11-19T12:10:49;9.43;;;2.60;;
15938;SDS011;8068;51.322;9.450;2023-11-19T12:13:18;17.87;;;3.37;;
15938;SDS011;8068;51.322;9.450;2023-11-19T12:18:31;8.30;;;2.83;;
15938;SDS011;8068;51.322;9.450;2023-11-19T12:20:59;10.57;;;2.60;;
15938;SDS011;8068;51.322;9.450;2023-11-19T12:23:30;11.30;;;2.60;;
15938;SDS011;8068;51.322;9.450;2023-11-19T12:25:58;10.80;;;1.90;;
15938;SDS011;8068;51.322;9.450;2023-11-19T12:28:25;9.80;;;2.50;;
15938;SDS011;8068;51.322;9.450;2023-11-19T12:30:54;14.40;;;3.07;;
15938;SDS011;8068;51.322;9.450;2023-11-19T12:33:36;18.37;;;3.63;;
15938;SDS011;8068;51.322;9.450;2023-11-19T12:36:04;9.43;;;2.60;;
15938;SDS011;8068;51.322;9.450;2023-11-19T12:38:32;10.10;;;2.70;;
15938;SDS011;8068;51.322;9.450;2023-11-19T12:41:05;14.83;;;4.27;;
15938;SDS011;8068;51.322;9.450;2023-11-19T12:43:33;11.87;;;3.00;;
15938;SDS011;8068;51.322;9.450;2023-11-19T12:46:23;12.03;;;3.10;;
15938;SDS011;8068;51.322;9.450;2023-11-19T12:48:51;13.30;;;2.93;;
15938;SDS011;8068;51.322;9.450;2023-11-19T12:51:18;18.13;;;3.63;;
15938;SDS011;8068;51.322;9.450;2023-11-19T12:53:47;13.00;;;2.93;;
15938;SDS011;8068;51.322;9.450;2023-11-19T12:56:19;14.63;;;2.83;;
15938;SDS011;8068;51.322;9.450;2023-11-19T12:58:46;7.97;;;2.23;;
15938;SDS011;8068;51.322;9.450;2023-11-19T13:01:21;15.63;;;3.10;;
15938;SDS011;8068;51.322;9.450;2023-11-19T13:03:48;9.43;;;2.43;;
15938;SDS011;8068;51.322;9.450;2023-11-19T13:06:16;16.67;;;3.40;;
15938;SDS011;8068;51.322;9.450;2023-11-19T13:08:50;14.00;;;2.47;;
15938;SDS011;8068;51.322;9.450;2023-11-19T13:11:32;15.03;;;2.43;;
15938;SDS011;8068;51.322;9.450;2023-11-19T13:14:02;11.77;;;2.27;;
15938;SDS011;8068;51.322;9.450;2023-11-19T13:16:31;13.90;;;2.30;;
15938;SDS011;8068;51.322;9.450;2023-11-19T13:18:58;7.53;;;2.60;;
15938;SDS011;8068;51.322;9.450;2023-11-19T13:21:27;5.87;;;1.83;;
15938;SDS011;8068;51.322;9.450;2023-11-19T13:23:54;10.73;;;2.83;;
15938;SDS011;8068;51.322;9.450;2023-11-19T13:26:21;13.40;;;2.70;;
15938;SDS011;8068;51.322;9.450;2023-11-19T13:28:48;12.90;;;2.50;;
15938;SDS011;8068;51.322;9.450;2023-11-19T13:31:15;13.93;;;2.93;;
15938;SDS011;8068;51.322;9.450;2023-11-19T13:33:43;9.10;;;2.70;;
15938;SDS011;8068;51.322;9.450;2023-11-19T13:36:10;14.20;;;2.23;;
15938;SDS011;8068;51.322;9.450;2023-11-19T13:38:42;17.07;;;3.30;;
15938;SDS011;8068;51.322;9.450;2023-11-19T13:41:11;13.70;;;3.60;;
15938;SDS011;8068;51.322;9.450;2023-11-19T13:43:39;15.30;;;4.90;;
15938;SDS011;8068;51.322;9.450;2023-11-19T13:46:07;13.40;;;3.10;;
15938;SDS011;8068;51.322;9.450;2023-11-19T13:48:37;11.40;;;2.80;;
15938;SDS011;8068;51.322;9.450;2023-11-19T13:51:04;15.03;;;2.87;;
15938;SDS011;8068;51.322;9.450;2023-11-19T13:53:32;12.00;;;3.00;;
15938;SDS011;8068;51.322;9.450;2023-11-19T13:56:17;18.27;;;3.97;;
15938;SDS011;8068;51.322;9.450;2023-11-19T13:58:44;14.93;;;2.93;;
15938;SDS011;8068;51.322;9.450;2023-11-19T14:01:11;10.70;;;3.20;;
15938;SDS011;8068;51.322;9.450;2023-11-19T14:03:40;15.87;;;3.00;;
15938;SDS011;8068;51.322;9.450;2023-11-19T14:06:08;17.10;;;4.03;;
15938;SDS011;8068;51.322;9.450;2023-11-19T14:08:35;11.90;;;3.03;;
15938;SDS011;8068;51.322;9.450;2023-11-19T14:11:03;7.60;;;2.40;;
15938;SDS011;8068;51.322;9.450;2023-11-19T14:13:30;15.03;;;3.63;;
15938;SDS011;8068;51.322;9.450;2023-11-19T14:15:57;8.97;;;2.70;;
15938;SDS011;8068;51.322;9.450;2023-11-19T14:18:24;12.13;;;2.60;;
15938;SDS011;8068;51.322;9.450;2023-11-19T14:20:51;15.30;;;3.30;;
15938;SDS011;8068;51.322;9.450;2023-11-19T14:23:18;13.43;;;2.90;;
15938;SDS011;8068;51.322;9.450;2023-11-19T14:25:45;12.67;;;2.33;;
15938;SDS011;8068;51.322;9.450;2023-11-19T14:28:12;14.43;;;2.80;;
15938;SDS011;8068;51.322;9.450;2023-11-19T14:30:39;13.07;;;2.30;;
15938;SDS011;8068;51.322;9.450;2023-11-19T14:33:11;7.90;;;2.07;;
15938;SDS011;8068;51.322;9.450;2023-11-19T14:35:39;14.23;;;2.50;;
15938;SDS011;8068;51.322;9.450;2023-11-19T14:38:06;12.93;;;2.97;;
15938;SDS011;8068;51.322;9.450;2023-11-19T14:40:36;13.47;;;3.10;;
15938;SDS011;8068;51.322;9.450;2023-11-19T14:43:06;9.43;;;2.70;;
15938;SDS011;8068;51.322;9.450;2023-11-19T14:45:33;9.53;;;1.90;;
15938;SDS011;8068;51.322;9.450;2023-11-19T14:48:10;15.00;;;2.97;;
15938;SDS011;8068;51.322;9.450;2023-11-19T14:50:37;11.70;;;3.87;;
15938;SDS011;8068;51.322;9.450;2023-11-19T14:53:07;18.53;;;4.10;;
15938;SDS011;8068;51.322;9.450;2023-11-19T14:55:34;12.57;;;4.50;;
15938;SDS011;8068;51.322;9.450;2023-11-19T14:58:01;7.03;;;1.67;;
15938;SDS011;8068;51.322;9.450;2023-11-19T15:00:35;9.93;;;2.37;;
15938;SDS011;8068;51.322;9.450;2023-11-19T15:03:03;7.13;;;1.90;;
15938;SDS011;8068;51.322;9.450;2023-11-19T15:05:30;8.80;;;2.60;;
15938;SDS011;8068;51.322;9.450;2023-11-19T15:07:57;7.10;;;2.23;;
15938;SDS011;8068;51.322;9.450;2023-11-19T15:10:24;11.90;;;2.67;;
15938;SDS011;8068;51.322;9.450;2023-11-19T15:12:52;8.60;;;2.10;;
15938;SDS011;8068;51.322;9.450;2023-11-19T15:15:20;15.00;;;2.20;;
15938;SDS011;8068;51.322;9.450;2023-11-19T15:17:50;11.93;;;2.90;;
15938;SDS011;8068;51.322;9.450;2023-11-19T15:20:17;14.80;;;2.90;;
15938;SDS011;8068;51.322;9.450;2023-11-19T15:22:46;14.73;;;3.10;;
15938;SDS011;8068;51.322;9.450;2023-11-19T15:25:13;10.77;;;2.63;;